createdAt,value
2022-11-01T00:04:19.190Z,2.03
2022-11-01T00:09:21.832Z,0.73
2022-11-01T00:14:24.530Z,2.50
2022-11-01T00:19:27.849Z,2.22
2022-11-01T00:24:31.696Z,2.47
2022-11-01T00:29:34.271Z,1.08
2022-11-01T00:34:37.229Z,0.60
2022-11-01T00:39:39.844Z,0.40
2022-11-01T00:44:42.387Z,3.13
2022-11-01T00:49:45.015Z,0.60
2022-11-01T00:54:47.561Z,1.42
2022-11-01T00:59:50.193Z,1.38
2022-11-01T01:04:52.799Z,1.25
2022-11-01T01:09:55.375Z,1.42
2022-11-01T01:14:58.459Z,1.30
2022-11-01T01:20:02.686Z,0.47
2022-11-01T01:25:06.049Z,0.70
2022-11-01T01:30:09.468Z,0.98
2022-11-01T01:35:12.031Z,3.58
2022-11-01T01:40:14.601Z,1.58
2022-11-01T01:45:35.163Z,1.20
2022-11-01T01:50:47.275Z,1.20
2022-11-01T01:56:00.478Z,1.88
2022-11-01T02:01:03.197Z,0.85
2022-11-01T02:06:13.777Z,0.63
2022-11-01T02:11:17.879Z,1.33
2022-11-01T02:16:44.273Z,1.33
2022-11-01T02:22:09.631Z,0.90
2022-11-01T02:27:21.481Z,3.00
2022-11-01T02:32:29.815Z,1.42
2022-11-01T02:37:49.435Z,4.20
2022-11-01T02:43:01.284Z,1.20
2022-11-01T02:48:06.730Z,3.47
2022-11-01T02:53:10.149Z,2.75
2022-11-01T02:58:22.423Z,2.40
2022-11-01T03:03:29.823Z,3.53
2022-11-01T03:08:51.987Z,1.85
2022-11-01T03:19:46.528Z,4.85
2022-11-01T03:24:55.295Z,2.53
2022-11-01T03:30:10.302Z,4.38
2022-11-01T03:35:18.757Z,1.67
2022-11-01T03:40:25.222Z,3.10
2022-11-01T03:45:30.589Z,3.22
2022-11-01T03:50:34.346Z,1.75
2022-11-01T03:55:36.976Z,4.13
2022-11-01T04:00:42.497Z,1.80
2022-11-01T04:05:45.153Z,2.20
2022-11-01T04:10:47.653Z,4.82
2022-11-01T04:16:08.898Z,3.72
2022-11-01T04:21:19.248Z,3.20
2022-11-01T04:26:23.365Z,2.70
2022-11-01T04:31:36.948Z,2.63
2022-11-01T04:36:39.475Z,6.03
2022-11-01T04:41:42.026Z,4.38
2022-11-01T04:46:44.554Z,3.08
2022-11-01T04:51:47.591Z,1.98
2022-11-01T04:56:50.146Z,3.72
2022-11-01T05:01:52.859Z,4.03
2022-11-01T05:06:55.506Z,3.03
2022-11-01T05:11:58.019Z,2.70
2022-11-01T05:17:00.975Z,3.65
2022-11-01T05:22:04.422Z,3.42
2022-11-01T05:27:07.293Z,4.68
2022-11-01T05:32:10.082Z,2.60
2022-11-01T05:37:12.747Z,2.42
2022-11-01T05:42:15.327Z,4.13
2022-11-01T05:47:17.948Z,2.30
2022-11-01T05:52:20.995Z,5.18
2022-11-01T05:57:23.541Z,5.05
2022-11-01T06:02:26.172Z,4.47
2022-11-01T06:07:29.146Z,2.30
2022-11-01T06:12:31.708Z,4.78
2022-11-01T06:17:34.329Z,4.97
2022-11-01T06:22:36.954Z,5.00
2022-11-01T06:27:40.829Z,3.85
2022-11-01T06:32:43.549Z,3.25
2022-11-01T06:37:47.395Z,7.25
2022-11-01T06:42:49.982Z,3.25
2022-11-01T06:47:53.005Z,2.00
2022-11-01T06:53:00.329Z,2.13
2022-11-01T06:58:06.676Z,5.22
2022-11-01T07:03:12.819Z,2.63
2022-11-01T07:08:15.487Z,8.95
2022-11-01T07:13:18.293Z,4.47
2022-11-01T07:18:20.854Z,4.05
2022-11-01T07:23:23.708Z,2.85
2022-11-01T07:28:26.509Z,5.55
2022-11-01T07:33:29.027Z,1.50
2022-11-01T07:38:32.975Z,2.75
2022-11-01T07:43:36.830Z,4.13
2022-11-01T07:48:39.410Z,3.65
2022-11-01T07:53:42.396Z,5.07
2022-11-01T07:58:44.966Z,2.13
2022-11-01T08:03:49.367Z,2.83
2022-11-01T08:08:52.016Z,4.07
2022-11-01T08:13:57.844Z,4.03
2022-11-01T08:19:03.334Z,4.82
2022-11-01T08:24:06.030Z,4.40
2022-11-01T08:29:09.470Z,5.03
2022-11-01T08:34:16.024Z,6.47
2022-11-01T08:39:19.882Z,2.10
2022-11-01T08:44:22.383Z,5.35
2022-11-01T08:49:24.998Z,3.78
2022-11-01T08:54:27.517Z,5.63
2022-11-01T08:59:30.207Z,4.10
2022-11-01T09:04:46.979Z,3.60
2022-11-01T09:09:56.767Z,4.20
2022-11-01T09:14:59.548Z,3.38
2022-11-01T09:20:02.433Z,4.00
2022-11-01T09:25:06.269Z,2.33
2022-11-01T09:30:09.571Z,4.90
2022-11-01T09:35:12.847Z,4.65
2022-11-01T09:40:16.374Z,5.10
2022-11-01T09:45:22.909Z,3.50
2022-11-01T09:50:30.334Z,4.25
2022-11-01T09:56:12.536Z,2.72
2022-11-01T10:01:52.711Z,3.10
2022-11-01T10:07:01.253Z,3.70
2022-11-01T10:12:21.516Z,3.00
2022-11-01T10:18:02.443Z,4.85
2022-11-01T10:23:06.115Z,4.45
2022-11-01T10:28:21.103Z,4.63
2022-11-01T10:33:27.384Z,4.10
2022-11-01T10:44:21.481Z,5.82
2022-11-01T10:49:46.160Z,4.57
2022-11-01T10:54:55.970Z,2.90
2022-11-01T11:00:01.678Z,5.07
2022-11-01T11:05:05.869Z,5.78
2022-11-01T11:10:24.961Z,4.00
2022-11-01T11:15:44.055Z,4.40
2022-11-01T11:20:55.627Z,5.85
2022-11-01T11:26:16.775Z,3.10
2022-11-01T11:31:31.691Z,3.50
2022-11-01T11:36:38.120Z,9.32
2022-11-01T11:41:42.005Z,3.05
2022-11-01T11:46:57.739Z,2.78
2022-11-01T11:52:00.455Z,3.38
2022-11-01T11:57:12.043Z,5.03
2022-11-01T12:02:36.644Z,3.72
2022-11-01T12:07:54.509Z,4.55
2022-11-01T12:12:57.223Z,5.47
2022-11-01T12:18:19.456Z,2.88
2022-11-01T12:23:27.376Z,4.85
2022-11-01T12:28:38.027Z,3.78
2022-11-01T12:33:51.891Z,7.03
2022-11-01T12:39:13.843Z,3.67
2022-11-01T12:44:22.705Z,7.93
2022-11-01T12:49:39.453Z,3.25
2022-11-01T12:55:16.576Z,4.38
2022-11-01T13:00:27.030Z,5.45
2022-11-01T13:05:49.258Z,13.32
2022-11-01T13:10:52.949Z,13.30
2022-11-01T13:16:04.990Z,9.02
2022-11-01T13:21:40.815Z,10.52
2022-11-01T13:26:56.959Z,9.57
2022-11-01T13:32:17.878Z,5.88
2022-11-01T13:37:36.746Z,7.03
2022-11-01T13:43:07.487Z,7.85
2022-11-01T13:48:09.899Z,6.80
2022-11-01T13:53:28.404Z,6.30
2022-11-01T13:58:32.823Z,7.82
2022-11-01T14:03:35.731Z,6.03
2022-11-01T14:08:43.945Z,3.90
2022-11-01T14:13:47.794Z,3.03
2022-11-01T14:19:06.480Z,3.65
2022-11-01T14:24:18.659Z,7.93
2022-11-01T14:29:21.311Z,5.47
2022-11-01T14:34:28.766Z,6.88
2022-11-01T14:39:55.978Z,7.28
2022-11-01T14:45:00.538Z,10.35
2022-11-01T14:50:16.840Z,8.95
2022-11-01T14:55:25.316Z,8.88
2022-11-01T15:00:30.485Z,5.88
2022-11-01T15:05:33.115Z,5.00
2022-11-01T15:10:42.436Z,7.45
2022-11-01T15:15:56.613Z,8.38
2022-11-01T15:21:00.988Z,13.55
2022-11-01T15:26:10.249Z,9.65
2022-11-01T15:31:12.937Z,7.07
2022-11-01T15:36:26.970Z,9.02
2022-11-01T15:41:34.589Z,8.63
2022-11-01T15:46:41.071Z,4.80
2022-11-01T15:51:50.706Z,7.95
2022-11-01T15:56:55.556Z,7.88
2022-11-01T16:02:01.145Z,3.05
2022-11-01T16:07:07.227Z,3.45
2022-11-01T16:12:25.959Z,7.28
2022-11-01T16:17:40.947Z,11.57
2022-11-01T16:22:43.450Z,10.30
2022-11-01T16:28:05.214Z,7.35
2022-11-01T16:33:44.256Z,10.02
2022-11-01T16:38:47.732Z,6.88
2022-11-01T16:43:56.096Z,7.00
2022-11-01T16:49:16.705Z,12.02
2022-11-01T16:54:19.254Z,9.75
2022-11-01T16:59:33.767Z,10.45
2022-11-01T17:04:40.170Z,8.48
2022-11-01T17:09:42.727Z,12.15
2022-11-01T17:14:45.903Z,11.25
2022-11-01T17:19:54.088Z,16.35
2022-11-01T17:24:57.047Z,17.75
2022-11-01T17:29:59.729Z,17.08
2022-11-01T17:35:02.395Z,12.00
2022-11-01T17:40:19.051Z,10.07
2022-11-01T17:45:22.923Z,11.43
2022-11-01T17:50:25.596Z,11.13
2022-11-01T17:55:28.138Z,10.88
2022-11-01T18:00:31.281Z,11.65
2022-11-01T18:05:36.625Z,8.93
2022-11-01T18:10:58.114Z,11.73
2022-11-01T18:16:12.862Z,13.43
2022-11-01T18:21:26.165Z,12.73
2022-11-01T18:26:31.609Z,26.63
2022-11-01T18:31:40.613Z,13.48
2022-11-01T18:36:52.476Z,16.42
2022-11-01T18:47:02.665Z,13.00
2022-11-01T18:52:11.661Z,14.30
2022-11-01T18:57:17.343Z,12.75
2022-11-01T19:02:23.589Z,15.05
2022-11-01T19:07:44.477Z,12.60
2022-11-01T19:12:56.410Z,14.20
2022-11-01T19:18:03.401Z,15.60
2022-11-01T19:23:20.216Z,13.73
2022-11-01T19:28:37.632Z,17.27
2022-11-01T19:33:43.981Z,11.88
2022-11-01T19:38:48.192Z,14.82
2022-11-01T19:43:51.654Z,11.45
2022-11-01T19:48:55.198Z,11.30
2022-11-01T19:54:00.119Z,12.63
2022-11-01T19:59:04.876Z,12.82
2022-11-01T20:04:15.944Z,8.80
2022-11-01T20:09:25.373Z,11.70
2022-11-01T20:14:29.041Z,9.35
2022-11-01T20:19:31.804Z,12.25
2022-11-01T20:24:34.691Z,11.63
2022-11-01T20:29:37.298Z,8.13
2022-11-01T20:34:40.094Z,10.57
2022-11-01T20:39:42.666Z,11.40
2022-11-01T20:44:45.262Z,9.25
2022-11-01T20:49:47.839Z,9.77
2022-11-01T20:54:50.442Z,9.88
2022-11-01T20:59:55.793Z,8.23
2022-11-01T21:05:26.165Z,14.75
2022-11-01T21:10:42.905Z,9.18
2022-11-01T21:15:46.452Z,8.68
2022-11-01T21:20:49.510Z,10.35
2022-11-01T21:25:58.203Z,9.68
2022-11-01T21:31:28.758Z,9.93
2022-11-01T21:36:39.531Z,9.75
2022-11-01T21:41:45.251Z,11.43
2022-11-01T21:46:53.710Z,14.32
2022-11-01T21:52:00.491Z,10.38
2022-11-01T21:57:05.221Z,13.32
2022-11-01T22:02:11.225Z,14.77
2022-11-01T22:07:14.103Z,12.77
2022-11-01T22:12:17.180Z,9.63
2022-11-01T22:17:20.315Z,12.65
2022-11-01T22:22:22.837Z,8.98
2022-11-01T22:27:25.787Z,12.65
2022-11-01T22:32:29.390Z,12.10
2022-11-01T22:37:35.386Z,11.18
2022-11-01T22:42:38.077Z,12.35
2022-11-01T22:47:40.669Z,11.77
2022-11-01T22:52:44.418Z,8.20
2022-11-01T22:58:27.958Z,8.80
2022-11-01T23:03:40.849Z,7.20
2022-11-01T23:08:43.425Z,9.10
2022-11-01T23:14:04.465Z,10.52
2022-11-01T23:19:11.520Z,10.95
2022-11-01T23:24:14.230Z,10.68
2022-11-01T23:29:16.817Z,14.23
2022-11-01T23:34:19.476Z,13.25
2022-11-01T23:39:24.679Z,7.22
2022-11-01T23:44:30.068Z,10.05
2022-11-01T23:49:34.508Z,12.15
2022-11-01T23:54:43.124Z,11.00
2022-11-01T23:59:47.303Z,10.65
